createdAt,value
2023-09-10T00:02:10.240Z,6.23
2023-09-10T00:06:13.228Z,5.80
2023-09-10T00:10:15.173Z,5.60
2023-09-10T00:14:18.801Z,5.50
2023-09-10T00:18:21.872Z,6.03
2023-09-10T00:22:24.901Z,6.33
2023-09-10T00:26:26.623Z,6.03
2023-09-10T00:30:29.911Z,5.53
2023-09-10T00:34:31.715Z,5.67
2023-09-10T00:38:34.858Z,5.03
2023-09-10T00:42:36.807Z,5.73
2023-09-10T00:46:38.393Z,5.93
2023-09-10T00:50:39.956Z,6.70
2023-09-10T00:54:43.226Z,6.50
2023-09-10T00:58:48.578Z,6.40
2023-09-10T01:02:50.836Z,6.20
2023-09-10T01:06:55.934Z,5.73
2023-09-10T01:11:07.958Z,6.30
2023-09-10T01:15:16.937Z,6.17
2023-09-10T01:19:43.711Z,6.27
2023-09-10T01:23:53.617Z,6.60
2023-09-10T01:27:56.474Z,6.60
2023-09-10T01:32:00.620Z,7.07
2023-09-10T01:36:10.080Z,6.73
2023-09-10T01:40:15.555Z,6.70
2023-09-10T01:44:20.032Z,7.13
2023-09-10T01:48:21.819Z,6.70
2023-09-10T01:52:23.319Z,7.30
2023-09-10T01:56:25.071Z,6.73
2023-09-10T02:00:29.092Z,6.80
2023-09-10T02:04:31.647Z,7.00
2023-09-10T02:08:34.431Z,6.50
2023-09-10T02:12:36.268Z,6.97
2023-09-10T02:16:41.313Z,7.03
2023-09-10T02:20:43.262Z,6.97
2023-09-10T02:24:44.980Z,7.10
2023-09-10T02:28:46.447Z,8.30
2023-09-10T02:32:49.406Z,7.40
2023-09-10T02:36:52.461Z,7.97
2023-09-10T02:40:55.189Z,7.77
2023-09-10T02:44:58.995Z,8.83
2023-09-10T02:49:02.452Z,9.07
2023-09-10T02:53:04.653Z,8.90
2023-09-10T02:57:06.173Z,8.67
2023-09-10T03:01:07.963Z,9.77
2023-09-10T03:05:10.902Z,11.37
2023-09-10T03:09:13.802Z,11.23
2023-09-10T03:13:15.296Z,11.50
2023-09-10T03:17:17.105Z,11.10
2023-09-10T03:21:19.965Z,10.33
2023-09-10T03:25:21.492Z,10.13
2023-09-10T03:29:23.336Z,10.00
2023-09-10T03:33:25.068Z,10.23
2023-09-10T03:37:28.414Z,9.90
2023-09-10T03:41:30.054Z,9.43
2023-09-10T03:45:31.828Z,10.07
2023-09-10T03:49:34.081Z,9.53
2023-09-10T03:53:37.203Z,10.50
2023-09-10T03:57:38.662Z,9.80
2023-09-10T04:01:40.413Z,10.53
2023-09-10T04:05:42.293Z,10.03
2023-09-10T04:09:47.517Z,10.07
2023-09-10T04:13:49.265Z,10.50
2023-09-10T04:17:51.900Z,13.17
2023-09-10T04:21:53.862Z,12.17
2023-09-10T04:25:56.717Z,13.53
2023-09-10T04:29:58.800Z,14.90
2023-09-10T04:34:00.251Z,13.77
2023-09-10T04:38:01.754Z,15.03
2023-09-10T04:42:05.141Z,14.67
2023-09-10T04:46:07.010Z,17.67
2023-09-10T04:50:12.359Z,17.57
2023-09-10T04:54:15.003Z,18.57
2023-09-10T04:58:18.183Z,17.70
2023-09-10T05:02:21.318Z,17.43
2023-09-10T05:06:25.937Z,18.50
2023-09-10T05:10:29.541Z,19.47
2023-09-10T05:14:32.658Z,16.77
2023-09-10T05:18:34.643Z,17.57
2023-09-10T05:22:36.939Z,16.03
2023-09-10T05:26:41.787Z,16.63
2023-09-10T05:30:44.950Z,17.77
2023-09-10T05:34:47.034Z,17.17
2023-09-10T05:38:48.501Z,15.83
2023-09-10T05:42:50.016Z,16.30
2023-09-10T05:46:52.868Z,14.17
2023-09-10T05:50:56.825Z,13.60
2023-09-10T05:54:58.291Z,12.67
2023-09-10T05:59:00.053Z,12.00
2023-09-10T06:03:03.275Z,11.97
2023-09-10T06:07:07.529Z,12.33
2023-09-10T06:11:09.325Z,12.63
2023-09-10T06:15:11.659Z,12.90
2023-09-10T06:19:14.740Z,12.33
2023-09-10T06:23:16.244Z,11.23
2023-09-10T06:27:17.804Z,10.43
2023-09-10T06:31:19.765Z,10.63
2023-09-10T06:35:29.855Z,9.90
2023-09-10T06:39:31.403Z,10.47
2023-09-10T06:43:33.481Z,10.50
2023-09-10T06:47:35.251Z,10.87
2023-09-10T06:51:38.768Z,11.13
2023-09-10T06:55:40.352Z,9.97
2023-09-10T06:59:44.036Z,11.73
2023-09-10T07:03:45.599Z,10.93
2023-09-10T07:07:48.675Z,10.47
2023-09-10T07:11:50.491Z,10.20
2023-09-10T07:15:52.260Z,9.47
2023-09-10T07:19:54.021Z,10.40
2023-09-10T07:23:56.886Z,9.60
2023-09-10T07:27:58.700Z,9.47
2023-09-10T07:32:01.315Z,9.50
2023-09-10T07:36:05.061Z,8.90
2023-09-10T07:40:09.872Z,9.33
2023-09-10T07:44:11.497Z,8.90
2023-09-10T07:48:13.533Z,7.63
2023-09-10T07:52:15.079Z,7.57
2023-09-10T07:56:18.035Z,7.27
2023-09-10T08:00:21.135Z,7.70
2023-09-10T08:04:22.813Z,7.23
2023-09-10T08:08:25.127Z,7.40
2023-09-10T08:12:29.084Z,7.03
2023-09-10T08:16:32.604Z,6.73
2023-09-10T08:20:36.665Z,6.90
2023-09-10T08:24:38.151Z,6.67
2023-09-10T08:28:41.499Z,6.83
2023-09-10T08:32:43.791Z,6.37
2023-09-10T08:36:45.381Z,6.03
2023-09-10T08:40:58.476Z,6.20
2023-09-10T08:45:06.070Z,6.70
2023-09-10T08:49:11.140Z,6.53
2023-09-10T08:53:14.702Z,6.10
2023-09-10T08:57:17.018Z,6.10
2023-09-10T09:01:22.781Z,6.30
2023-09-10T09:05:28.372Z,6.57
2023-09-10T09:09:34.466Z,6.10
2023-09-10T09:13:38.757Z,5.90
2023-09-10T09:17:42.431Z,5.70
2023-09-10T09:21:46.941Z,5.72
2023-09-10T09:25:50.454Z,5.93
2023-09-10T09:29:53.185Z,5.30
2023-09-10T09:33:57.281Z,5.20
2023-09-10T09:38:05.150Z,5.07
2023-09-10T09:42:07.012Z,5.68
2023-09-10T09:46:09.994Z,5.03
2023-09-10T09:50:16.790Z,4.95
2023-09-10T09:54:19.647Z,5.13
2023-09-10T09:58:21.264Z,5.55
2023-09-10T10:02:23.505Z,5.25
2023-09-10T10:06:26.624Z,5.22
2023-09-10T10:10:28.331Z,5.10
2023-09-10T10:14:32.386Z,5.05
2023-09-10T10:18:35.025Z,5.20
2023-09-10T10:22:38.347Z,4.78
2023-09-10T10:26:40.699Z,5.25
2023-09-10T10:30:49.232Z,5.10
2023-09-10T10:34:56.569Z,4.70
2023-09-10T10:39:03.022Z,5.10
2023-09-10T10:43:12.508Z,5.22
2023-09-10T10:47:21.380Z,4.25
2023-09-10T10:51:22.947Z,4.75
2023-09-10T10:55:27.065Z,4.55
2023-09-10T10:59:28.721Z,4.22
2023-09-10T11:03:32.998Z,4.65
2023-09-10T11:07:36.939Z,5.03
2023-09-10T11:11:47.648Z,4.40
2023-09-10T11:16:17.859Z,4.40
2023-09-10T11:20:49.425Z,4.95
2023-09-10T11:25:01.389Z,4.30
2023-09-10T11:29:05.188Z,4.22
2023-09-10T11:33:29.466Z,4.30
2023-09-10T11:37:32.848Z,4.30
2023-09-10T11:41:34.750Z,4.50
2023-09-10T11:45:37.549Z,4.35
2023-09-10T11:49:39.799Z,4.78
2023-09-10T11:53:41.836Z,4.18
2023-09-10T11:57:43.342Z,4.00
2023-09-10T12:01:46.734Z,4.70
2023-09-10T12:05:49.286Z,4.53
2023-09-10T12:09:51.102Z,4.60
2023-09-10T12:13:53.022Z,4.43
2023-09-10T12:17:57.766Z,4.70
2023-09-10T12:21:59.989Z,5.05
2023-09-10T12:26:02.797Z,4.55
2023-09-10T12:30:06.401Z,4.65
2023-09-10T12:34:10.698Z,4.70
2023-09-10T12:38:15.104Z,4.47
2023-09-10T12:42:17.001Z,4.65
2023-09-10T12:46:19.147Z,4.30
2023-09-10T12:50:22.608Z,4.68
2023-09-10T12:54:26.065Z,4.80
2023-09-10T12:58:28.161Z,4.65
2023-09-10T13:02:33.204Z,4.50
2023-09-10T13:06:38.493Z,4.57
2023-09-10T13:10:41.260Z,4.88
2023-09-10T13:14:42.988Z,4.75
2023-09-10T13:18:44.886Z,4.95
2023-09-10T13:22:49.381Z,4.70
2023-09-10T13:26:51.067Z,4.63
2023-09-10T13:30:52.596Z,4.80
2023-09-10T13:34:55.153Z,4.88
2023-09-10T13:38:58.507Z,4.63
2023-09-10T13:43:00.328Z,4.70
2023-09-10T13:47:01.836Z,4.40
2023-09-10T13:51:03.470Z,4.70
2023-09-10T13:55:09.688Z,4.32
2023-09-10T13:59:12.565Z,4.20
2023-09-10T14:03:14.475Z,4.57
2023-09-10T14:07:16.064Z,4.20
2023-09-10T14:11:19.000Z,4.35
2023-09-10T14:15:21.632Z,4.35
2023-09-10T14:19:23.137Z,5.10
2023-09-10T14:23:24.939Z,4.28
2023-09-10T14:27:28.150Z,4.97
2023-09-10T14:31:30.175Z,4.78
2023-09-10T14:35:34.645Z,4.47
2023-09-10T14:39:36.248Z,4.65
2023-09-10T14:43:39.255Z,4.30
2023-09-10T14:47:41.340Z,5.07
2023-09-10T14:51:43.124Z,4.63
2023-09-10T14:55:46.350Z,4.53
2023-09-10T14:59:49.183Z,4.15
2023-09-10T15:03:50.676Z,4.00
2023-09-10T15:07:52.267Z,4.38
2023-09-10T15:11:54.773Z,4.50
2023-09-10T15:15:58.438Z,3.88
2023-09-10T15:20:01.798Z,4.32
2023-09-10T15:24:03.805Z,4.13
2023-09-10T15:28:06.830Z,3.75
2023-09-10T15:32:09.933Z,4.10
2023-09-10T15:36:11.683Z,4.28
2023-09-10T15:40:13.602Z,4.55
2023-09-10T15:44:16.066Z,4.47
2023-09-10T15:48:19.137Z,3.92
2023-09-10T15:52:20.855Z,4.32
2023-09-10T15:56:22.698Z,4.85
2023-09-10T16:00:24.164Z,4.28
2023-09-10T16:04:26.987Z,4.43
2023-09-10T16:08:28.588Z,4.30
2023-09-10T16:12:31.197Z,4.00
2023-09-10T16:16:32.821Z,4.25
2023-09-10T16:20:35.714Z,3.92
2023-09-10T16:24:37.306Z,4.18
2023-09-10T16:28:38.782Z,3.75
2023-09-10T16:32:40.907Z,3.95
2023-09-10T16:36:43.839Z,4.05
2023-09-10T16:40:45.323Z,4.22
2023-09-10T16:44:47.100Z,4.28
2023-09-10T16:48:48.652Z,3.67
2023-09-10T16:52:52.570Z,4.13
2023-09-10T16:56:54.059Z,4.35
2023-09-10T17:00:55.731Z,4.40
2023-09-10T17:04:57.687Z,4.10
2023-09-10T17:09:00.748Z,4.43
2023-09-10T17:13:02.406Z,3.80
2023-09-10T17:17:04.557Z,4.25
2023-09-10T17:21:06.194Z,4.28
2023-09-10T17:25:10.597Z,4.90
2023-09-10T17:29:12.083Z,4.70
2023-09-10T17:33:13.798Z,4.68
2023-09-10T17:37:15.694Z,4.47
2023-09-10T17:41:19.064Z,4.25
2023-09-10T17:45:20.758Z,4.70
2023-09-10T17:49:22.528Z,4.60
2023-09-10T17:53:24.299Z,4.32
2023-09-10T17:57:27.134Z,5.00
2023-09-10T18:01:32.265Z,4.53
2023-09-10T18:05:34.070Z,4.18
2023-09-10T18:09:35.609Z,4.57
2023-09-10T18:13:40.653Z,4.30
2023-09-10T18:17:43.488Z,5.13
2023-09-10T18:21:45.178Z,4.40
2023-09-10T18:25:46.932Z,4.63
2023-09-10T18:29:50.190Z,5.07
2023-09-10T18:33:51.772Z,5.10
2023-09-10T18:37:53.247Z,4.67
2023-09-10T18:41:55.001Z,5.47
2023-09-10T18:45:58.052Z,5.40
2023-09-10T18:50:00.057Z,5.10
2023-09-10T18:54:01.643Z,5.77
2023-09-10T18:58:03.248Z,5.50
2023-09-10T19:02:06.830Z,5.50
2023-09-10T19:06:08.680Z,5.27
2023-09-10T19:10:10.837Z,5.53
2023-09-10T19:14:12.723Z,5.40
2023-09-10T19:18:15.853Z,5.50
2023-09-10T19:22:17.378Z,5.30
2023-09-10T19:26:19.168Z,5.77
2023-09-10T19:30:23.179Z,5.80
2023-09-10T19:34:26.219Z,5.90
2023-09-10T19:38:27.962Z,5.67
2023-09-10T19:42:29.866Z,6.10
2023-09-10T19:46:32.164Z,6.13
2023-09-10T19:50:35.184Z,6.33
2023-09-10T19:54:36.700Z,5.93
2023-09-10T19:58:38.145Z,5.73
2023-09-10T20:02:40.662Z,5.87
2023-09-10T20:06:43.750Z,5.63
2023-09-10T20:10:45.437Z,5.63
2023-09-10T20:14:46.970Z,6.23
2023-09-10T20:18:48.571Z,6.23
2023-09-10T20:22:51.672Z,6.40
2023-09-10T20:26:53.236Z,5.73
2023-09-10T20:30:54.740Z,6.70
2023-09-10T20:34:56.322Z,5.87
2023-09-10T20:38:59.396Z,6.17
2023-09-10T20:43:01.030Z,6.20
2023-09-10T20:47:02.506Z,6.80
2023-09-10T20:51:05.917Z,6.40
2023-09-10T20:55:09.264Z,6.50
2023-09-10T20:59:10.757Z,6.60
2023-09-10T21:03:22.142Z,6.53
2023-09-10T21:07:30.277Z,6.57
2023-09-10T21:11:33.588Z,6.30
2023-09-10T21:15:35.142Z,6.07
2023-09-10T21:19:37.064Z,6.73
2023-09-10T21:23:38.817Z,6.50
2023-09-10T21:27:42.142Z,7.13
2023-09-10T21:31:43.870Z,6.30
2023-09-10T21:35:46.527Z,6.40
2023-09-10T21:39:48.762Z,6.70
2023-09-10T21:43:51.780Z,6.67
2023-09-10T21:47:53.642Z,6.67
2023-09-10T21:51:55.163Z,6.70
2023-09-10T21:55:57.683Z,6.33
2023-09-10T22:00:00.483Z,6.33
2023-09-10T22:04:02.364Z,5.80
2023-09-10T22:08:04.320Z,6.23
2023-09-10T22:12:06.446Z,6.20
2023-09-10T22:16:09.472Z,6.17
2023-09-10T22:20:11.493Z,5.87
2023-09-10T22:24:12.959Z,5.97
2023-09-10T22:28:15.190Z,5.93
2023-09-10T22:32:18.301Z,6.03
2023-09-10T22:36:35.168Z,6.20
2023-09-10T22:40:39.496Z,6.23
2023-09-10T22:44:41.040Z,6.20
2023-09-10T22:48:44.050Z,6.53
2023-09-10T22:52:45.831Z,5.67
2023-09-10T22:56:47.351Z,6.10
2023-09-10T23:00:48.902Z,5.93
2023-09-10T23:04:51.741Z,6.30
2023-09-10T23:08:53.730Z,5.90
2023-09-10T23:12:57.090Z,6.80
2023-09-10T23:16:58.767Z,6.87
2023-09-10T23:21:01.943Z,7.10
2023-09-10T23:25:03.922Z,7.50
2023-09-10T23:29:05.847Z,7.80
2023-09-10T23:33:07.574Z,7.47
2023-09-10T23:37:10.773Z,6.93
2023-09-10T23:41:12.454Z,6.60
2023-09-10T23:45:14.239Z,6.73
2023-09-10T23:49:16.970Z,6.70
2023-09-10T23:53:19.834Z,6.77
2023-09-10T23:57:21.355Z,7.47
